createdAt,value
2022-11-01T00:04:45.154Z,8
2022-11-01T00:10:55.781Z,7
2022-11-01T00:17:06.457Z,11
2022-11-01T00:23:17.156Z,10
2022-11-01T00:29:27.763Z,7
2022-11-01T00:35:38.469Z,5
2022-11-01T00:41:49.121Z,9
2022-11-01T00:47:51.591Z,7
2022-11-01T00:54:02.255Z,10
2022-11-01T01:00:12.955Z,10
2022-11-01T01:06:23.585Z,7
2022-11-01T01:12:34.247Z,7
2022-11-01T01:18:44.967Z,5
2022-11-01T01:24:55.595Z,8
2022-11-01T01:31:06.269Z,9
2022-11-01T01:37:33.429Z,11
2022-11-01T01:44:49.919Z,8
2022-11-01T01:51:00.566Z,8
2022-11-01T01:57:11.252Z,9
2022-11-01T02:03:21.895Z,9
2022-11-01T02:09:32.558Z,8
2022-11-01T02:15:43.247Z,8
2022-11-01T02:21:53.926Z,10
2022-11-01T02:28:04.556Z,7
2022-11-01T02:34:15.259Z,11
2022-11-01T02:40:25.905Z,7
2022-11-01T02:46:28.400Z,7
2022-11-01T02:52:39.063Z,8
2022-11-01T02:58:49.746Z,9
2022-11-01T03:05:00.370Z,8
2022-11-01T03:11:11.091Z,9
2022-11-01T03:17:21.730Z,8
2022-11-01T03:23:32.371Z,9
2022-11-01T03:29:43.057Z,6
2022-11-01T03:35:53.718Z,6
2022-11-01T03:42:04.364Z,8
2022-11-01T03:48:06.878Z,6
2022-11-01T03:54:17.519Z,6
2022-11-01T03:59:22.251Z,7
2022-11-01T04:05:32.955Z,5
2022-11-01T04:10:45.838Z,6
2022-11-01T04:16:56.517Z,7
2022-11-01T04:23:07.206Z,5
2022-11-01T04:29:17.805Z,8
2022-11-01T04:35:28.500Z,7
2022-11-01T04:41:39.220Z,6
2022-11-01T04:47:41.636Z,6
2022-11-01T04:53:52.281Z,5
2022-11-01T05:00:03.008Z,6
2022-11-01T05:06:13.628Z,6
2022-11-01T05:12:24.296Z,7
2022-11-01T05:18:35.025Z,6
2022-11-01T05:24:45.659Z,7
2022-11-01T05:30:56.302Z,5
2022-11-01T05:37:07.002Z,7
2022-11-01T05:43:17.831Z,7
2022-11-01T05:49:20.123Z,5
2022-11-01T05:55:30.785Z,6
2022-11-01T06:01:41.541Z,6
2022-11-01T06:07:52.128Z,3
2022-11-01T06:14:02.783Z,4
2022-11-01T06:20:13.419Z,7
2022-11-01T06:26:24.126Z,6
2022-11-01T06:32:34.806Z,5
2022-11-01T06:37:47.708Z,4
2022-11-01T06:43:58.374Z,6
2022-11-01T06:50:00.858Z,7
2022-11-01T06:56:11.497Z,5
2022-11-01T07:02:26.990Z,4
2022-11-01T07:08:32.870Z,4
2022-11-01T07:15:57.612Z,5
2022-11-01T07:22:08.312Z,11
2022-11-01T07:28:18.997Z,3
2022-11-01T07:34:29.629Z,3
2022-11-01T07:40:40.277Z,4
2022-11-01T07:46:51.002Z,3
2022-11-01T07:52:53.448Z,5
2022-11-01T07:59:04.098Z,3
2022-11-01T08:05:14.877Z,3
2022-11-01T08:10:19.505Z,3
2022-11-01T08:16:30.149Z,3
2022-11-01T08:23:54.991Z,3
2022-11-01T08:31:19.769Z,3
2022-11-01T08:37:30.423Z,3
2022-11-01T08:43:41.135Z,2
2022-11-01T08:49:43.580Z,3
2022-11-01T08:55:54.263Z,3
2022-11-01T09:02:05.066Z,3
2022-11-01T09:08:31.958Z,2
2022-11-01T09:14:42.633Z,3
2022-11-01T09:20:53.331Z,3
2022-11-01T09:27:03.988Z,2
2022-11-01T09:33:14.635Z,3
2022-11-01T09:39:25.330Z,3
2022-11-01T09:45:35.964Z,2
2022-11-01T09:51:38.430Z,3
2022-11-01T09:57:49.125Z,5
2022-11-01T10:03:59.739Z,3
2022-11-01T10:10:10.407Z,2
2022-11-01T10:16:21.130Z,3
2022-11-01T10:22:31.761Z,3
2022-11-01T10:28:42.429Z,2
2022-11-01T10:34:53.109Z,2
2022-11-01T10:41:03.772Z,2
2022-11-01T10:47:14.424Z,2
2022-11-01T10:53:25.140Z,2
2022-11-01T11:00:41.816Z,4
2022-11-01T11:06:52.369Z,2
2022-11-01T11:13:03.574Z,3
2022-11-01T11:19:13.731Z,4
2022-11-01T11:25:24.394Z,3
2022-11-01T11:31:35.194Z,2
2022-11-01T11:38:02.439Z,3
2022-11-01T11:44:12.768Z,5
2022-11-01T11:50:23.435Z,3
2022-11-01T11:56:34.079Z,4
2022-11-01T12:02:36.630Z,3
2022-11-01T12:08:47.279Z,3
2022-11-01T12:15:06.097Z,4
2022-11-01T12:21:16.756Z,4
2022-11-01T12:27:27.452Z,4
2022-11-01T12:36:06.368Z,4
2022-11-01T12:43:39.391Z,3
2022-11-01T12:51:04.172Z,3
2022-11-01T12:58:33.470Z,3
2022-11-01T13:05:53.771Z,3
2022-11-01T13:12:12.648Z,4
2022-11-01T13:20:51.575Z,4
2022-11-01T13:28:16.458Z,5
2022-11-01T13:35:41.172Z,5
2022-11-01T13:43:06.259Z,5
2022-11-01T13:50:30.783Z,5
2022-11-01T13:55:35.541Z,5
2022-11-01T14:03:00.275Z,4
2022-11-01T14:11:06.100Z,4
2022-11-01T14:16:10.901Z,4
2022-11-01T14:22:37.818Z,4
2022-11-01T14:28:56.721Z,3
2022-11-01T14:35:07.358Z,3
2022-11-01T14:41:18.011Z,3
2022-11-01T14:48:42.881Z,3
2022-11-01T14:53:55.736Z,4
2022-11-01T14:59:00.464Z,4
2022-11-01T15:06:17.095Z,4
2022-11-01T15:12:27.748Z,5
2022-11-01T15:18:38.390Z,8
2022-11-01T15:24:49.100Z,5
2022-11-01T15:30:59.751Z,8
2022-11-01T15:37:10.403Z,9
2022-11-01T15:43:21.108Z,6
2022-11-01T15:49:31.752Z,6
2022-11-01T15:55:42.404Z,7
2022-11-01T16:01:53.253Z,6
2022-11-01T16:07:55.544Z,7
2022-11-01T16:14:06.213Z,9
2022-11-01T16:20:16.925Z,8
2022-11-01T16:26:27.551Z,6
2022-11-01T16:32:38.199Z,6
2022-11-01T16:37:51.138Z,5
2022-11-01T16:44:01.801Z,7
2022-11-01T16:52:40.715Z,7
2022-11-01T16:58:51.410Z,12
2022-11-01T17:06:08.091Z,6
2022-11-01T17:11:12.738Z,9
2022-11-01T17:17:23.411Z,6
2022-11-01T17:23:34.044Z,8
2022-11-01T17:29:44.816Z,6
2022-11-01T17:35:55.403Z,6
2022-11-01T17:42:06.044Z,8
2022-11-01T17:48:16.731Z,9
2022-11-01T17:55:49.739Z,7
2022-11-01T18:02:08.717Z,7
2022-11-01T18:09:33.350Z,7
2022-11-01T18:14:38.282Z,7
2022-11-01T18:19:42.816Z,7
2022-11-01T18:26:01.693Z,6
2022-11-01T18:32:20.545Z,9
2022-11-01T18:38:31.275Z,4
2022-11-01T18:43:35.951Z,4
2022-11-01T18:49:54.824Z,5
2022-11-01T18:57:19.593Z,5
2022-11-01T19:03:38.437Z,9
2022-11-01T19:12:33.777Z,7
2022-11-01T19:18:52.705Z,10
2022-11-01T19:26:17.439Z,10
2022-11-01T19:33:42.232Z,10
2022-11-01T19:38:47.029Z,10
2022-11-01T19:43:51.696Z,10
2022-11-01T19:50:10.555Z,10
2022-11-01T19:57:37.474Z,10
2022-11-01T20:05:00.190Z,10
2022-11-01T20:11:10.812Z,10
2022-11-01T20:16:15.551Z,9
2022-11-01T20:22:26.205Z,14
2022-11-01T20:28:36.884Z,8
2022-11-01T20:34:47.522Z,11
2022-11-01T20:40:58.209Z,8
2022-11-01T20:47:08.865Z,9
2022-11-01T20:53:19.529Z,15
2022-11-01T21:00:44.320Z,10
2022-11-01T21:07:03.211Z,10
2022-11-01T21:14:28.000Z,10
2022-11-01T21:20:38.636Z,10
2022-11-01T21:27:55.287Z,10
2022-11-01T21:35:28.245Z,10
2022-11-01T21:41:13.935Z,10
2022-11-01T21:48:38.756Z,10
2022-11-01T21:56:03.564Z,10
2022-11-01T22:03:28.359Z,10
2022-11-01T22:12:15.492Z,10
2022-11-01T22:18:26.143Z,10
2022-11-01T22:24:36.806Z,10
2022-11-01T22:31:45.253Z,10
2022-11-01T22:36:49.951Z,13
2022-11-01T22:43:00.832Z,8
2022-11-01T22:49:11.288Z,9
2022-11-01T22:55:21.919Z,10
2022-11-01T23:01:40.935Z,10
2022-11-01T23:07:51.473Z,12
2022-11-01T23:14:02.114Z,7
2022-11-01T23:20:12.855Z,10
2022-11-01T23:26:23.468Z,11
2022-11-01T23:33:56.460Z,12
2022-11-01T23:41:21.247Z,12
2022-11-01T23:48:46.080Z,12
2022-11-01T23:56:10.838Z,12
